Time;durP1;ratioP1;P1;durP2;ratioP2;P2;SDS_P1;SDS_P2;PMS_P1;PMS_P2;Temp;Humidity;BMP_temperature;BMP_pressure;BME280_temperature;BME280_humidity;BME280_pressure;Samples;Min_cycle;Max_cycle;Signal;HPM_P1;HPM_P2
2022/11/17 00:01:21;;;;;;;6.53;3.28;;;14.40;64.40;;;;;;6320775;28;20108;-65
2022/11/17 00:04:24;;;;;;;5.88;3.25;;;14.30;64.40;;;;;;6322013;28;20035;-64
2022/11/17 00:07:24;;;;;;;8.38;3.92;;;14.30;64.50;;;;;;6318824;28;20080;-64
2022/11/17 00:10:25;;;;;;;7.57;3.53;;;14.30;64.50;;;;;;6318859;28;20024;-64
2022/11/17 00:16:48;;;;;;;7.40;2.97;;;14.40;64.50;;;;;;6320838;28;20093;-65
2022/11/17 00:23:15;;;;;;;11.88;3.25;;;14.30;64.50;;;;;;6220618;28;20044;-64
2022/11/17 00:26:18;;;;;;;8.13;3.33;;;14.30;64.70;;;;;;6221457;28;20443;-64
2022/11/17 00:29:19;;;;;;;7.97;3.47;;;14.30;64.80;;;;;;6220734;28;20045;-65
2022/11/17 00:35:39;;;;;;;8.95;2.88;;;14.20;65.00;;;;;;6218506;28;20034;-65
2022/11/17 00:38:40;;;;;;;8.27;3.25;;;14.30;65.00;;;;;;6202887;28;20113;-64
2022/11/17 00:41:41;;;;;;;7.30;3.53;;;14.30;64.90;;;;;;6219337;28;20030;-64
2022/11/17 00:44:42;;;;;;;6.22;3.50;;;14.30;64.90;;;;;;6215946;28;20140;-65
2022/11/17 00:47:43;;;;;;;5.15;3.33;;;14.30;64.90;;;;;;6218306;28;20379;-65
2022/11/17 00:50:44;;;;;;;9.27;3.92;;;14.30;64.90;;;;;;6218398;28;20092;-65
2022/11/17 00:53:45;;;;;;;9.32;3.50;;;14.30;65.00;;;;;;6218783;28;20124;-65
2022/11/17 00:56:46;;;;;;;8.38;4.05;;;14.30;65.10;;;;;;6219120;28;20085;-65
2022/11/17 00:59:47;;;;;;;6.60;3.05;;;14.40;65.00;;;;;;6265547;28;20039;-65
2022/11/17 01:02:48;;;;;;;6.28;3.50;;;14.50;64.90;;;;;;6321192;28;20060;-66
2022/11/17 01:05:49;;;;;;;7.55;3.38;;;14.50;64.80;;;;;;6304671;28;20042;-65
2022/11/17 01:08:49;;;;;;;7.15;3.28;;;14.50;64.70;;;;;;6319832;28;20119;-65
2022/11/17 01:11:51;;;;;;;9.82;3.00;;;14.50;64.70;;;;;;6320883;28;20035;-65
2022/11/17 01:14:52;;;;;;;6.75;2.83;;;14.50;64.70;;;;;;6320190;28;20028;-66
2022/11/17 01:17:53;;;;;;;11.05;3.03;;;14.50;64.70;;;;;;6319025;28;20074;-66
2022/11/17 01:20:54;;;;;;;8.80;3.10;;;14.60;64.70;;;;;;6319963;28;20085;-66
2022/11/17 01:23:56;;;;;;;5.00;2.83;;;14.60;64.60;;;;;;6316151;28;20055;-65
2022/11/17 01:26:57;;;;;;;7.57;2.97;;;14.70;64.50;;;;;;6320649;28;20035;-65
2022/11/17 01:29:58;;;;;;;8.30;3.50;;;14.70;64.40;;;;;;6302423;28;20100;-64
2022/11/17 01:32:59;;;;;;;10.77;3.45;;;14.70;64.30;;;;;;6303761;28;20372;-64
2022/11/17 01:36:06;;;;;;;9.48;2.45;;;14.70;64.40;;;;;;6318686;28;20042;-65
2022/11/17 01:39:07;;;;;;;6.43;3.25;;;14.70;64.40;;;;;;6301294;28;20119;-64
2022/11/17 01:42:16;;;;;;;8.55;2.70;;;14.70;64.20;;;;;;6319219;28;20015;-64
2022/11/17 01:45:20;;;;;;;5.47;2.67;;;14.80;64.30;;;;;;6318240;28;20107;-64
2022/11/17 01:48:21;;;;;;;6.95;2.88;;;14.70;64.30;;;;;;6301569;28;20118;-64
2022/11/17 01:51:22;;;;;;;9.38;4.10;;;14.70;64.40;;;;;;6317884;28;20471;-64
2022/11/17 01:54:25;;;;;;;6.35;3.33;;;14.80;64.50;;;;;;6318382;28;20489;-65
2022/11/17 01:57:32;;;;;;;4.80;2.88;;;14.80;64.30;;;;;;6316703;28;20043;-65
2022/11/17 02:00:32;;;;;;;7.47;3.85;;;14.80;64.30;;;;;;6318748;28;20672;-65
2022/11/17 02:03:36;;;;;;;11.77;3.75;;;14.80;64.30;;;;;;6314924;28;20055;-65
2022/11/17 02:06:37;;;;;;;6.97;3.60;;;14.80;64.40;;;;;;6300424;28;20028;-65
2022/11/17 02:09:39;;;;;;;6.95;3.42;;;14.80;64.30;;;;;;6318669;28;20020;-65
2022/11/17 02:12:41;;;;;;;8.10;3.45;;;14.90;64.30;;;;;;6318889;28;20043;-65
2022/11/17 02:15:42;;;;;;;7.55;3.97;;;14.90;64.30;;;;;;6319955;28;20484;-65
2022/11/17 02:18:45;;;;;;;8.90;3.28;;;14.90;65.20;;;;;;6318880;28;20485;-65
2022/11/17 02:22:10;;;;;;;4.80;2.90;;;14.90;64.30;;;;;;6318984;28;20465;-65
2022/11/17 02:25:43;;;;;;;6.85;3.15;;;15.00;64.40;;;;;;6317677;28;20027;-65
2022/11/17 02:28:56;;;;;;;7.10;2.83;;;15.00;64.40;;;;;;6316907;28;20024;-64
2022/11/17 02:32:43;;;;;;;5.43;2.97;;;15.00;64.30;;;;;;6318929;28;20550;-64
2022/11/17 02:35:47;;;;;;;7.03;2.83;;;14.90;64.50;;;;;;6262010;28;20160;-64
2022/11/17 02:38:54;;;;;;;5.10;2.92;;;14.90;64.50;;;;;;6247252;28;20091;-64
2022/11/17 02:42:03;;;;;;;6.13;3.17;;;14.90;64.60;;;;;;6262871;28;20017;-65
2022/11/17 02:45:06;;;;;;;4.90;2.80;;;14.80;64.60;;;;;;6247543;28;20073;-64
2022/11/17 02:48:13;;;;;;;7.85;3.05;;;14.80;64.60;;;;;;6257879;28;20041;-64
2022/11/17 02:51:20;;;;;;;8.48;2.70;;;14.80;64.60;;;;;;6261270;28;20072;-64
2022/11/17 02:54:23;;;;;;;7.30;2.85;;;14.80;64.60;;;;;;6249615;28;20053;-65
2022/11/17 02:57:35;;;;;;;5.85;3.10;;;14.80;65.70;;;;;;6251020;28;20021;-64
2022/11/17 03:00:51;;;;;;;4.75;2.58;;;14.70;64.90;;;;;;6253725;28;20564;-66
2022/11/17 03:04:10;;;;;;;6.88;2.95;;;14.70;65.00;;;;;;6239887;28;20416;-65
2022/11/17 03:07:27;;;;;;;;;;;14.70;65.00;;;;;;6308928;28;20043;-64
2022/11/17 03:10:57;;;;;;;8.57;3.05;;;14.70;65.00;;;;;;6319109;28;19923;-64
2022/11/17 03:14:30;;;;;;;6.35;3.13;;;14.70;65.10;;;;;;6324254;28;20048;-64
2022/11/17 03:17:43;;;;;;;6.80;3.05;;;14.80;65.30;;;;;;6270009;28;20686;-64
2022/11/17 03:21:16;;;;;;;6.82;3.28;;;14.80;65.20;;;;;;6255173;28;20032;-64
2022/11/17 03:24:32;;;;;;;8.20;2.75;;;14.80;65.10;;;;;;6272948;28;20064;-64
2022/11/17 03:27:38;;;;;;;7.10;2.92;;;14.80;65.00;;;;;;6255591;28;20033;-64
2022/11/17 03:30:43;;;;;;;6.88;3.25;;;14.80;65.00;;;;;;6270953;28;20025;-65
2022/11/17 03:33:48;;;;;;;8.60;3.95;;;14.90;65.00;;;;;;6252532;28;20029;-64
2022/11/17 03:36:54;;;;;;;9.43;3.83;;;14.80;65.00;;;;;;6268332;28;20047;-64
2022/11/17 03:40:07;;;;;;;9.63;3.10;;;14.80;65.20;;;;;;6265246;28;20544;-64
2022/11/17 03:43:10;;;;;;;3.97;2.38;;;14.80;65.30;;;;;;6251366;28;20029;-65
2022/11/17 03:46:15;;;;;;;7.32;2.92;;;14.70;65.40;;;;;;6268765;28;20033;-64
2022/11/17 03:49:52;;;;;;;5.38;3.05;;;14.70;65.50;;;;;;6267670;28;20086;-65
2022/11/17 03:52:53;;;;;;;8.13;2.60;;;14.70;65.70;;;;;;6197048;28;20418;-65
2022/11/17 03:56:22;;;;;;;5.13;2.17;;;14.70;65.70;;;;;;6294075;28;20072;-65
2022/11/17 03:59:35;;;;;;;3.03;1.48;;;14.70;65.60;;;;;;6250290;28;20024;-64
2022/11/17 04:02:40;;;;;;;5.95;3.08;;;14.80;65.60;;;;;;6274193;28;20045;-65
2022/11/17 04:05:41;;;;;;;4.43;2.35;;;14.80;65.50;;;;;;6293960;28;20027;-65
2022/11/17 04:08:42;;;;;;;7.47;3.38;;;14.80;65.70;;;;;;6291579;28;20477;-65
2022/11/17 04:18:22;;;;;;;7.30;3.17;;;14.90;65.60;;;;;;6290991;28;20677;-64
2022/11/17 04:21:23;;;;;;;6.47;3.38;;;14.90;65.40;;;;;;6278523;28;20078;-65
2022/11/17 04:24:24;;;;;;;5.32;2.88;;;14.90;65.50;;;;;;6290163;28;20029;-65
2022/11/17 04:30:44;;;;;;;3.40;2.17;;;15.00;65.50;;;;;;6318947;28;20031;-65
2022/11/17 04:33:53;;;;;;;4.35;2.47;;;15.00;65.50;;;;;;6320455;28;20012;-65
2022/11/17 04:36:54;;;;;;;6.80;2.15;;;15.00;65.50;;;;;;6319711;28;20077;-65
2022/11/17 04:39:55;;;;;;;3.42;2.03;;;15.00;65.40;;;;;;6312341;28;20016;-65
2022/11/17 04:42:56;;;;;;;4.05;2.15;;;14.90;65.60;;;;;;6318147;28;20740;-65
2022/11/17 04:46:00;;;;;;;4.28;2.40;;;14.80;65.90;;;;;;6320229;28;20077;-65
2022/11/17 04:49:03;;;;;;;9.13;2.75;;;14.70;66.30;;;;;;6317031;28;20085;-65
2022/11/17 04:52:03;;;;;;;5.43;2.67;;;14.60;66.60;;;;;;6321729;28;20344;-65
2022/11/17 04:55:05;;;;;;;5.60;2.30;;;14.60;66.80;;;;;;6321394;28;20032;-66
2022/11/17 04:58:05;;;;;;;4.18;1.95;;;14.60;67.00;;;;;;6320893;28;20032;-66
2022/11/17 05:01:12;;;;;;;2.72;1.83;;;14.70;67.10;;;;;;6320667;28;20326;-65
2022/11/17 05:07:39;;;;;;;6.75;2.30;;;14.70;66.70;;;;;;6280766;28;20041;-65
2022/11/17 05:14:00;;;;;;;7.53;2.53;;;14.70;66.70;;;;;;6266785;28;20090;-65
2022/11/17 05:17:04;;;;;;;3.88;2.00;;;14.80;66.80;;;;;;6279584;28;20048;-65
2022/11/17 05:20:05;;;;;;;10.40;2.88;;;14.70;66.80;;;;;;6272675;28;20044;-65
2022/11/17 05:26:32;;;;;;;5.72;2.60;;;14.70;66.60;;;;;;6280041;28;20043;-65
2022/11/17 05:29:33;;;;;;;4.83;2.70;;;14.70;66.50;;;;;;6280001;28;20101;-65
2022/11/17 05:32:34;;;;;;;5.45;2.92;;;14.70;66.60;;;;;;6260355;28;20426;-65
2022/11/17 05:35:35;;;;;;;4.53;2.47;;;14.70;66.70;;;;;;6260930;28;20058;-66
2022/11/17 05:38:36;;;;;;;5.38;2.55;;;14.70;66.80;;;;;;6277609;28;20041;-66
2022/11/17 05:41:37;;;;;;;5.78;2.65;;;14.70;66.70;;;;;;6243124;28;20072;-65
2022/11/17 05:44:38;;;;;;;6.95;2.13;;;14.70;66.60;;;;;;6292532;28;20028;-65
2022/11/17 05:47:39;;;;;;;2.28;1.83;;;14.70;66.50;;;;;;6320007;28;20027;-66
2022/11/17 05:50:40;;;;;;;3.75;1.88;;;14.80;66.50;;;;;;6318097;28;21394;-65
2022/11/17 05:53:41;;;;;;;4.85;1.80;;;14.80;66.40;;;;;;6317430;28;20024;-66
2022/11/17 05:56:51;;;;;;;6.00;2.33;;;14.80;66.40;;;;;;6320633;28;20030;-66
2022/11/17 05:59:58;;;;;;;2.58;1.85;;;14.80;66.40;;;;;;6316817;28;20051;-65
2022/11/17 06:03:04;;;;;;;3.13;2.00;;;14.80;66.40;;;;;;6319244;28;20030;-65
2022/11/17 06:06:06;;;;;;;8.25;2.33;;;14.70;66.40;;;;;;6319642;28;20077;-65
2022/11/17 06:09:07;;;;;;;5.30;2.28;;;14.70;66.50;;;;;;6317182;28;20062;-65
2022/11/17 06:12:10;;;;;;;4.20;2.25;;;14.70;66.60;;;;;;6315795;28;20368;-64
2022/11/17 06:15:11;;;;;;;4.28;2.00;;;14.80;66.60;;;;;;6318610;28;20452;-64
2022/11/17 06:18:17;;;;;;;3.78;1.98;;;14.80;67.30;;;;;;6296918;28;20086;-64
2022/11/17 06:21:18;;;;;;;5.43;2.40;;;14.80;66.30;;;;;;6315821;28;20035;-64
2022/11/17 06:24:19;;;;;;;5.38;2.55;;;14.80;66.30;;;;;;6313279;28;20036;-65
2022/11/17 06:27:21;;;;;;;4.70;2.30;;;14.90;66.20;;;;;;6310897;28;20043;-66
2022/11/17 06:30:22;;;;;;;4.20;2.38;;;14.90;66.20;;;;;;6314665;28;20338;-64
2022/11/17 06:33:24;;;;;;;9.52;2.20;;;15.00;66.20;;;;;;6315154;28;20101;-64
2022/11/17 06:36:25;;;;;;;3.42;1.92;;;15.00;66.00;;;;;;6314313;28;20027;-64
2022/11/17 06:39:28;;;;;;;3.25;1.80;;;15.00;65.90;;;;;;6316230;28;20482;-64
2022/11/17 06:45:48;;;;;;;5.82;2.20;;;15.10;65.70;;;;;;6317605;28;20100;-64
2022/11/17 06:48:49;;;;;;;3.15;2.15;;;15.10;65.50;;;;;;6318561;28;20483;-64
2022/11/17 06:51:50;;;;;;;5.32;2.20;;;15.10;65.30;;;;;;6318305;28;20032;-64
2022/11/17 06:54:51;;;;;;;4.30;1.92;;;15.10;65.40;;;;;;6317718;28;20111;-64
2022/11/17 06:57:57;;;;;;;4.63;1.80;;;15.10;65.30;;;;;;6317727;28;20020;-64
2022/11/17 07:01:02;;;;;;;6.15;2.08;;;15.10;65.20;;;;;;6318264;28;20020;-64
2022/11/17 07:04:03;;;;;;;5.45;2.08;;;15.10;65.30;;;;;;6317506;28;20055;-64
2022/11/17 07:07:04;;;;;;;6.38;2.10;;;15.00;65.20;;;;;;6318654;28;20032;-64
2022/11/17 07:10:05;;;;;;;7.28;2.00;;;15.00;65.30;;;;;;6300350;28;20036;-64
2022/11/17 07:13:07;;;;;;;4.25;2.13;;;15.10;65.20;;;;;;6318382;28;20036;-64
2022/11/17 07:16:14;;;;;;;5.00;2.30;;;15.10;65.00;;;;;;6316907;28;20116;-64
2022/11/17 07:19:14;;;;;;;4.47;2.08;;;15.20;65.00;;;;;;6316608;28;20028;-64
2022/11/17 07:22:16;;;;;;;5.63;1.70;;;15.20;64.90;;;;;;6298401;28;20032;-64
2022/11/17 07:25:18;;;;;;;4.78;2.05;;;15.20;64.70;;;;;;6314173;28;20361;-64
2022/11/17 07:28:19;;;;;;;3.28;1.70;;;15.30;64.60;;;;;;6299018;28;20287;-64
2022/11/17 07:31:21;;;;;;;12.27;2.00;;;15.40;64.50;;;;;;6316316;28;20028;-64
2022/11/17 07:34:22;;;;;;;5.28;2.22;;;15.40;64.40;;;;;;6316763;28;20430;-64
2022/11/17 07:37:23;;;;;;;5.82;1.88;;;15.50;64.30;;;;;;6318592;28;20035;-64
2022/11/17 07:40:24;;;;;;;4.45;1.75;;;15.50;64.10;;;;;;6314560;28;20031;-64
2022/11/17 07:43:26;;;;;;;5.72;1.85;;;15.60;64.00;;;;;;6318636;28;20031;-65
2022/11/17 07:46:27;;;;;;;4.03;2.10;;;15.70;63.80;;;;;;6321336;28;20111;-65
2022/11/17 07:49:31;;;;;;;5.75;1.85;;;15.80;63.60;;;;;;6317092;28;20028;-64
2022/11/17 07:52:32;;;;;;;19.95;3.65;;;15.90;63.50;;;;;;6321084;28;20036;-65
2022/11/17 07:55:33;;;;;;;11.68;4.03;;;15.90;63.20;;;;;;6320856;28;20527;-64
2022/11/17 07:58:35;;;;;;;10.73;2.60;;;16.00;63.00;;;;;;6320456;28;20146;-65
2022/11/17 08:01:36;;;;;;;3.38;2.05;;;16.00;63.00;;;;;;6305449;28;20052;-65
2022/11/17 08:04:36;;;;;;;5.38;2.47;;;16.10;62.90;;;;;;6322366;28;20455;-64
2022/11/17 08:07:37;;;;;;;5.28;2.35;;;16.20;62.60;;;;;;6322029;28;20095;-65
2022/11/17 08:10:38;;;;;;;6.25;2.75;;;16.20;62.20;;;;;;6320079;28;20345;-65
2022/11/17 08:13:40;;;;;;;4.90;2.50;;;16.30;62.10;;;;;;6321735;28;20020;-65
2022/11/17 08:16:41;;;;;;;9.15;2.40;;;16.20;61.80;;;;;;6320186;28;20079;-65
2022/11/17 08:19:42;;;;;;;8.80;2.38;;;16.20;61.90;;;;;;6319846;28;20101;-64
2022/11/17 08:22:43;;;;;;;8.93;2.80;;;16.10;62.10;;;;;;6319890;28;20012;-64
2022/11/17 08:25:43;;;;;;;6.35;2.70;;;16.10;62.40;;;;;;6318348;28;20028;-64
2022/11/17 08:28:44;;;;;;;5.38;2.22;;;16.10;62.60;;;;;;6321307;28;20059;-64
2022/11/17 08:31:46;;;;;;;7.88;2.53;;;16.10;62.60;;;;;;6321168;28;20306;-64
2022/11/17 08:34:47;;;;;;;5.20;2.75;;;16.10;62.70;;;;;;6319035;28;20040;-64
2022/11/17 08:37:48;;;;;;;6.47;2.58;;;16.10;62.70;;;;;;6319588;28;20077;-64
2022/11/17 08:40:49;;;;;;;11.40;4.40;;;16.10;62.70;;;;;;6321384;28;20047;-64
2022/11/17 08:43:50;;;;;;;15.52;3.65;;;16.10;62.80;;;;;;6319218;28;20031;-64
2022/11/17 08:46:51;;;;;;;7.28;2.90;;;16.10;62.70;;;;;;6320367;28;20415;-65
2022/11/17 08:49:52;;;;;;;6.57;3.08;;;16.20;62.70;;;;;;6321077;28;20031;-64
2022/11/17 08:52:53;;;;;;;11.63;2.75;;;16.10;62.70;;;;;;6321074;28;20043;-65
2022/11/17 08:55:53;;;;;;;6.13;2.65;;;16.10;62.80;;;;;;6320052;28;20089;-64
2022/11/17 08:58:54;;;;;;;6.18;2.28;;;16.20;62.90;;;;;;6321350;28;20115;-64
2022/11/17 09:01:55;;;;;;;6.82;3.20;;;16.20;62.70;;;;;;6320885;28;20080;-64
2022/11/17 09:04:56;;;;;;;8.02;3.08;;;16.30;62.70;;;;;;6320197;28;20047;-64
2022/11/17 09:07:58;;;;;;;15.10;3.28;;;16.40;62.60;;;;;;6319411;28;20349;-64
2022/11/17 09:11:06;;;;;;;8.15;2.40;;;16.40;62.50;;;;;;6317803;28;20035;-64
2022/11/17 09:14:07;;;;;;;8.68;2.88;;;16.50;62.50;;;;;;6320465;28;20559;-65
2022/11/17 09:17:08;;;;;;;10.63;3.17;;;16.50;62.30;;;;;;6319203;28;20043;-63
2022/11/17 09:20:09;;;;;;;6.82;2.97;;;16.70;62.30;;;;;;6316969;28;20108;-65
2022/11/17 09:23:10;;;;;;;6.65;3.00;;;16.80;62.10;;;;;;6318710;28;20104;-64
2022/11/17 09:26:14;;;;;;;6.55;2.80;;;17.00;61.90;;;;;;6321629;28;20425;-65
2022/11/17 09:29:15;;;;;;;7.75;2.97;;;17.10;61.60;;;;;;6315127;28;20036;-65
2022/11/17 09:32:18;;;;;;;12.88;3.20;;;17.20;61.00;;;;;;6318991;28;20345;-65
2022/11/17 09:35:19;;;;;;;7.38;2.92;;;17.30;60.60;;;;;;6317291;28;20373;-65
2022/11/17 09:38:20;;;;;;;8.52;3.00;;;17.40;60.30;;;;;;6318255;28;20115;-65
2022/11/17 09:41:45;;;;;;;10.90;2.85;;;17.40;60.10;;;;;;6316950;28;20103;-65
2022/11/17 09:44:51;;;;;;;11.40;3.53;;;17.40;60.20;;;;;;6314772;28;20039;-65
2022/11/17 09:48:25;;;;;;;11.27;2.80;;;17.40;60.00;;;;;;6318639;28;20103;-64
2022/11/17 09:51:30;;;;;;;10.02;2.92;;;17.50;60.80;;;;;;6315578;28;20325;-65
2022/11/17 09:54:37;;;;;;;5.55;2.67;;;17.50;59.70;;;;;;6300706;28;20020;-65
2022/11/17 09:57:46;;;;;;;5.57;2.78;;;17.50;59.60;;;;;;6312696;28;20038;-64
2022/11/17 10:00:49;;;;;;;4.25;2.45;;;17.50;59.40;;;;;;6313842;28;20040;-65
2022/11/17 10:03:50;;;;;;;4.72;2.30;;;17.50;59.40;;;;;;6316754;28;20384;-66
2022/11/17 10:06:51;;;;;;;6.50;2.95;;;17.50;60.00;;;;;;6297326;28;20033;-65
2022/11/17 10:09:53;;;;;;;5.40;3.05;;;17.70;59.40;;;;;;6326093;28;20024;-66
2022/11/17 10:12:58;;;;;;;7.55;2.90;;;17.80;59.30;;;;;;6315661;28;20034;-66
2022/11/17 10:16:06;;;;;;;3.92;2.28;;;17.90;59.20;;;;;;6310355;28;20119;-66
2022/11/17 10:19:18;;;;;;;6.65;2.90;;;18.00;58.80;;;;;;6299346;28;20028;-65
2022/11/17 10:22:35;;;;;;;10.00;3.05;;;18.10;58.70;;;;;;6315191;28;20021;-65
2022/11/17 10:25:39;;;;;;;4.82;3.00;;;18.20;58.70;;;;;;6311765;28;20099;-64
2022/11/17 10:28:40;;;;;;;11.52;3.60;;;18.30;58.50;;;;;;6316567;28;20074;-65
2022/11/17 10:31:44;;;;;;;6.85;3.55;;;18.40;58.30;;;;;;6300536;28;20043;-65
2022/11/17 10:34:46;;;;;;;7.03;3.72;;;18.30;58.20;;;;;;6316987;28;20118;-65
2022/11/17 10:37:58;;;;;;;6.75;3.30;;;18.30;58.20;;;;;;6313803;28;20038;-65
2022/11/17 10:41:01;;;;;;;7.93;3.45;;;18.30;58.40;;;;;;6317747;28;20043;-66
2022/11/17 10:44:28;;;;;;;10.00;4.15;;;18.30;58.30;;;;;;6316888;28;20146;-65
2022/11/17 10:47:36;;;;;;;8.40;3.90;;;18.40;58.20;;;;;;6316374;28;20044;-65
2022/11/17 10:50:49;;;;;;;11.82;4.32;;;18.50;58.00;;;;;;6315260;28;20210;-65
2022/11/17 10:54:15;;;;;;;8.27;3.65;;;18.50;57.90;;;;;;6317009;28;20110;-64
2022/11/17 10:57:21;;;;;;;9.90;3.72;;;18.50;58.00;;;;;;6306058;28;20044;-65
2022/11/17 11:00:31;;;;;;;10.38;4.00;;;18.60;57.90;;;;;;6316890;28;20430;-65
2022/11/17 11:03:33;;;;;;;8.23;3.72;;;18.60;57.70;;;;;;6313675;28;20024;-65
2022/11/17 11:06:35;;;;;;;9.57;3.80;;;18.60;57.80;;;;;;6315719;28;20019;-65
2022/11/17 11:10:05;;;;;;;10.20;3.63;;;18.70;57.80;;;;;;6315546;28;20518;-66
2022/11/17 11:13:27;;;;;;;9.75;4.72;;;18.70;57.60;;;;;;6313453;28;20132;-65
2022/11/17 11:16:29;;;;;;;8.77;3.30;;;18.90;57.40;;;;;;6313823;28;20051;-64
2022/11/17 11:19:30;;;;;;;7.20;3.50;;;19.00;57.00;;;;;;6321150;28;20024;-67
2022/11/17 11:22:49;;;;;;;8.50;4.03;;;18.90;57.10;;;;;;6322744;28;20028;-67
2022/11/17 11:25:56;;;;;;;8.95;3.40;;;19.20;57.50;;;;;;6321475;28;20423;-64
2022/11/17 11:29:35;;;;;;;11.90;3.60;;;19.60;56.40;;;;;;6305873;28;20028;-64
2022/11/17 11:33:03;;;;;;;6.72;2.85;;;19.70;55.80;;;;;;6307372;28;20373;-65
2022/11/17 11:36:36;;;;;;;5.53;2.95;;;19.70;55.60;;;;;;6322474;28;20032;-66
2022/11/17 11:39:39;;;;;;;5.82;2.83;;;19.60;55.50;;;;;;6319496;28;20028;-65
2022/11/17 11:42:56;;;;;;;9.75;3.85;;;19.50;55.50;;;;;;6322314;28;20016;-66
2022/11/17 11:46:12;;;;;;;13.27;3.78;;;19.40;55.80;;;;;;6320022;28;20028;-67
2022/11/17 11:49:27;;;;;;;6.50;3.15;;;19.40;55.80;;;;;;6319594;28;20107;-65
2022/11/17 11:52:34;;;;;;;9.38;3.63;;;19.30;55.80;;;;;;6321615;28;20036;-65
2022/11/17 11:55:38;;;;;;;18.17;5.03;;;19.20;55.70;;;;;;6318193;28;20074;-65
2022/11/17 11:59:06;;;;;;;9.93;4.90;;;19.20;55.70;;;;;;6320912;28;20028;-65
2022/11/17 12:02:10;;;;;;;9.93;4.00;;;19.20;55.90;;;;;;6276487;28;20066;-66
2022/11/17 12:05:33;;;;;;;11.48;4.10;;;19.20;55.80;;;;;;6255194;28;20131;-65
2022/11/17 12:08:44;;;;;;;15.80;4.43;;;19.20;55.90;;;;;;6290337;28;20136;-65
2022/11/17 12:11:59;;;;;;;9.18;3.58;;;19.20;56.10;;;;;;6275509;28;20107;-65
2022/11/17 12:15:07;;;;;;;16.27;4.25;;;19.20;56.00;;;;;;6272868;28;20037;-65
2022/11/17 12:18:17;;;;;;;;;;;19.10;56.20;;;;;;6292552;28;20056;-66
2022/11/17 12:21:23;;;;;;;11.75;3.80;;;19.20;56.10;;;;;;6289125;28;19996;-65
2022/11/17 12:24:36;;;;;;;12.30;3.22;;;19.20;56.00;;;;;;6275625;28;20024;-67
2022/11/17 12:27:37;;;;;;;8.95;3.20;;;19.20;56.10;;;;;;6287911;28;20123;-66
2022/11/17 12:30:43;;;;;;;7.82;2.97;;;19.20;56.00;;;;;;6271795;28;20089;-65
2022/11/17 12:33:53;;;;;;;4.88;2.17;;;19.30;56.00;;;;;;6290314;28;20111;-66
2022/11/17 12:37:13;;;;;;;6.55;2.40;;;19.40;56.00;;;;;;6274567;28;20025;-65
2022/11/17 12:40:37;;;;;;;5.07;2.33;;;19.50;55.70;;;;;;6315883;28;20050;-66
2022/11/17 12:43:38;;;;;;;7.70;2.67;;;19.50;55.40;;;;;;6304859;28;20028;-65
2022/11/17 12:46:42;;;;;;;4.70;1.90;;;19.60;55.30;;;;;;6319952;28;20039;-65
2022/11/17 12:50:20;;;;;;;12.65;1.65;;;19.60;55.10;;;;;;6319676;28;20422;-66
2022/11/17 12:53:31;;;;;;;4.80;1.67;;;19.60;54.80;;;;;;6320811;28;20020;-65
2022/11/17 12:56:47;;;;;;;5.20;1.88;;;19.60;54.70;;;;;;6320354;28;20028;-66
2022/11/17 12:59:48;;;;;;;10.88;3.13;;;19.60;54.60;;;;;;6319504;28;20064;-64
2022/11/17 13:03:14;;;;;;;7.88;3.58;;;19.70;54.50;;;;;;6303678;28;20026;-65
2022/11/17 13:06:16;;;;;;;10.88;3.60;;;19.90;54.40;;;;;;6318667;28;20072;-65
2022/11/17 13:09:26;;;;;;;8.63;3.60;;;19.90;54.30;;;;;;6320255;28;20028;-66
2022/11/17 13:12:29;;;;;;;9.43;3.28;;;20.00;54.50;;;;;;6334894;28;20149;-66
2022/11/17 13:15:30;;;;;;;15.68;4.03;;;20.10;54.30;;;;;;6320209;28;20353;-65
2022/11/17 13:18:36;;;;;;;5.90;3.60;;;20.10;54.40;;;;;;6318863;28;20032;-65
2022/11/17 13:21:37;;;;;;;5.25;2.55;;;20.10;54.30;;;;;;6319783;28;20432;-65
2022/11/17 13:24:40;;;;;;;5.45;2.17;;;20.20;54.20;;;;;;6319361;28;20027;-65
2022/11/17 13:27:44;;;;;;;9.13;2.67;;;20.20;53.90;;;;;;6315765;28;20035;-66
2022/11/17 13:30:45;;;;;;;7.97;3.10;;;20.20;53.90;;;;;;6319539;28;20107;-64
2022/11/17 13:34:05;;;;;;;11.93;3.80;;;20.20;53.90;;;;;;6317050;28;20020;-65
2022/11/17 13:37:15;;;;;;;6.30;1.30;;;20.30;54.00;;;;;;6316254;28;20024;-65
2022/11/17 13:40:21;;;;;;;12.07;2.33;;;20.30;53.80;;;;;;6317285;28;20028;-65
2022/11/17 13:43:24;;;;;;;8.98;1.77;;;20.40;53.40;;;;;;6318574;28;20032;-65
2022/11/17 13:46:24;;;;;;;6.35;1.27;;;20.40;53.10;;;;;;6314095;28;20035;-66
2022/11/17 13:49:33;;;;;;;1.98;1.10;;;20.50;53.00;;;;;;6314680;28;20089;-65
2022/11/17 13:52:36;;;;;;;3.25;1.20;;;20.60;52.80;;;;;;6317396;28;20044;-67
2022/11/17 13:55:45;;;;;;;5.57;2.25;;;20.70;52.70;;;;;;6317511;28;20020;-66
2022/11/17 13:58:47;;;;;;;4.60;1.50;;;20.80;52.50;;;;;;6298587;28;20123;-66
2022/11/17 14:02:09;;;;;;;6.32;2.50;;;20.80;52.00;;;;;;6302224;28;20024;-65
2022/11/17 14:05:12;;;;;;;11.43;3.28;;;20.90;52.00;;;;;;6318497;28;20571;-66
2022/11/17 14:08:25;;;;;;;6.47;2.38;;;20.80;52.20;;;;;;6319842;28;20032;-65
2022/11/17 14:11:26;;;;;;;15.95;3.13;;;20.80;52.50;;;;;;6301600;28;20043;-66
2022/11/17 14:14:33;;;;;;;8.25;2.90;;;20.80;52.60;;;;;;6318765;28;20517;-65
2022/11/17 14:17:34;;;;;;;9.38;4.03;;;20.80;52.70;;;;;;6318114;28;20052;-66
2022/11/17 14:20:35;;;;;;;8.73;2.88;;;20.80;52.90;;;;;;6314815;28;20024;-65
2022/11/17 14:23:36;;;;;;;10.20;3.22;;;20.80;52.90;;;;;;6317380;28;20023;-65
2022/11/17 14:26:43;;;;;;;10.55;3.33;;;20.70;53.00;;;;;;6320255;28;20063;-66
2022/11/17 14:29:45;;;;;;;10.10;3.17;;;20.70;53.30;;;;;;6317552;28;20490;-65
2022/11/17 14:32:46;;;;;;;9.55;2.90;;;20.70;53.10;;;;;;6317264;28;20024;-65
2022/11/17 14:35:57;;;;;;;6.03;3.15;;;20.50;53.20;;;;;;6317208;28;20054;-65
2022/11/17 14:39:00;;;;;;;12.15;3.17;;;20.60;53.30;;;;;;6314945;28;20020;-65
2022/11/17 14:42:01;;;;;;;11.73;4.72;;;20.60;53.30;;;;;;6314357;28;20131;-65
2022/11/17 14:45:02;;;;;;;14.75;3.83;;;20.50;53.40;;;;;;6315470;28;20020;-65
2022/11/17 14:48:06;;;;;;;9.07;3.05;;;20.40;53.50;;;;;;6316524;28;20112;-66
2022/11/17 14:51:07;;;;;;;15.77;4.07;;;20.40;53.70;;;;;;6298606;28;20521;-66
2022/11/17 14:54:08;;;;;;;13.85;3.78;;;20.30;53.80;;;;;;6316019;28;20342;-66
2022/11/17 14:57:09;;;;;;;11.30;2.90;;;20.30;54.00;;;;;;6317376;28;20055;-66
2022/11/17 15:00:11;;;;;;;10.70;3.42;;;20.30;54.00;;;;;;6316475;28;20028;-65
2022/11/17 15:03:12;;;;;;;9.25;3.63;;;20.20;54.10;;;;;;6301969;28;20119;-66
2022/11/17 15:06:13;;;;;;;11.95;3.22;;;20.10;54.20;;;;;;6317614;28;20051;-66
2022/11/17 15:09:15;;;;;;;11.40;2.78;;;20.10;54.40;;;;;;6298374;28;20054;-66
2022/11/17 15:12:16;;;;;;;14.32;1.90;;;20.00;54.60;;;;;;6314775;28;20039;-66
2022/11/17 15:15:17;;;;;;;12.18;2.10;;;19.90;54.60;;;;;;6316102;28;20115;-65
2022/11/17 15:18:18;;;;;;;3.03;1.40;;;19.80;54.60;;;;;;6315705;28;20138;-65
2022/11/17 15:21:19;;;;;;;7.75;1.52;;;19.70;54.70;;;;;;6315139;28;20095;-65
2022/11/17 15:24:20;;;;;;;7.05;1.75;;;19.60;54.80;;;;;;6315891;28;20024;-65
2022/11/17 15:27:22;;;;;;;9.45;1.73;;;19.50;54.90;;;;;;6315752;28;20031;-65
2022/11/17 15:30:23;;;;;;;10.38;1.38;;;19.40;55.20;;;;;;6319361;28;20069;-66
2022/11/17 15:33:25;;;;;;;6.10;1.40;;;19.40;55.00;;;;;;6318098;28;20028;-66
2022/11/17 15:36:25;;;;;;;4.60;1.23;;;19.30;54.40;;;;;;6317730;28;20063;-66
2022/11/17 15:39:26;;;;;;;3.33;1.08;;;19.30;54.00;;;;;;6317313;28;20029;-66
2022/11/17 15:42:27;;;;;;;3.55;1.55;;;19.40;53.80;;;;;;6317007;28;20421;-65
2022/11/17 15:45:28;;;;;;;11.38;1.70;;;19.40;53.40;;;;;;6300468;28;20020;-66
2022/11/17 15:48:30;;;;;;;5.28;1.60;;;19.40;52.10;;;;;;6316350;28;20035;-65
2022/11/17 15:51:31;;;;;;;6.35;1.52;;;19.50;52.20;;;;;;6316756;28;20031;-66
2022/11/17 15:54:32;;;;;;;7.43;2.22;;;19.40;52.30;;;;;;6317131;28;20032;-66
2022/11/17 15:57:33;;;;;;;4.68;1.30;;;19.40;52.20;;;;;;6316389;28;20508;-65
2022/11/17 16:00:34;;;;;;;13.07;2.95;;;19.30;52.60;;;;;;6316945;28;20024;-66
2022/11/17 16:03:35;;;;;;;12.75;2.30;;;19.30;52.80;;;;;;6316840;28;20262;-65
2022/11/17 16:06:41;;;;;;;5.13;2.35;;;19.20;53.10;;;;;;6317718;28;20050;-65
2022/11/17 16:09:41;;;;;;;6.38;1.58;;;19.20;53.50;;;;;;6298640;28;20032;-65
2022/11/17 16:12:42;;;;;;;8.43;2.20;;;19.10;53.80;;;;;;6301186;28;20031;-65
2022/11/17 16:15:47;;;;;;;8.77;2.30;;;19.10;54.00;;;;;;6302813;28;20156;-65
2022/11/17 16:18:47;;;;;;;7.45;1.83;;;19.00;54.00;;;;;;6302440;28;20131;-65
2022/11/17 16:21:48;;;;;;;4.60;1.77;;;19.00;54.70;;;;;;6321051;28;20026;-65
2022/11/17 16:24:49;;;;;;;4.93;1.80;;;18.90;54.00;;;;;;6321307;28;20103;-66
2022/11/17 16:27:50;;;;;;;7.43;1.63;;;18.90;53.90;;;;;;6321382;28;20111;-65
2022/11/17 16:30:51;;;;;;;7.13;1.98;;;18.90;53.80;;;;;;6322514;28;20428;-64
2022/11/17 16:33:53;;;;;;;8.02;1.67;;;18.90;53.70;;;;;;6322183;28;20016;-65
2022/11/17 16:36:54;;;;;;;6.88;2.35;;;18.80;53.60;;;;;;6304290;28;20028;-66